sensor_id;sensor_type;location;lat;lon;timestamp;pressure;altitude;pressure_sealevel;temperature;humidity
49999;BME280;68071;45.062;7.356;2023-03-04T00:01:01;95324.56;;;4.63;93.76
49999;BME280;68071;45.062;7.356;2023-03-04T00:04:05;95326.56;;;4.90;91.29
49999;BME280;68071;45.062;7.356;2023-03-04T00:07:09;95328.63;;;4.50;94.34
49999;BME280;68071;45.062;7.356;2023-03-04T00:10:13;95329.25;;;4.63;92.86
49999;BME280;68071;45.062;7.356;2023-03-04T00:13:17;95321.31;;;5.31;86.09
49999;BME280;68071;45.062;7.356;2023-03-04T00:16:24;95322.28;;;4.92;89.16
49999;BME280;68071;45.062;7.356;2023-03-04T00:19:31;95326.59;;;4.93;89.38
49999;BME280;68071;45.062;7.356;2023-03-04T00:22:35;95313.47;;;5.03;88.73
49999;BME280;68071;45.062;7.356;2023-03-04T00:25:39;95318.72;;;4.65;90.96
49999;BME280;68071;45.062;7.356;2023-03-04T00:28:43;95315.25;;;4.45;92.61
49999;BME280;68071;45.062;7.356;2023-03-04T00:31:47;95320.28;;;4.66;91.35
49999;BME280;68071;45.062;7.356;2023-03-04T00:34:51;95318.31;;;5.40;84.74
49999;BME280;68071;45.062;7.356;2023-03-04T00:37:54;95328.38;;;4.82;90.13
49999;BME280;68071;45.062;7.356;2023-03-04T00:40:58;95321.47;;;4.88;89.47
49999;BME280;68071;45.062;7.356;2023-03-04T00:44:04;95310.97;;;5.21;86.36
49999;BME280;68071;45.062;7.356;2023-03-04T00:47:08;95314.13;;;5.23;86.01
49999;BME280;68071;45.062;7.356;2023-03-04T00:50:12;95311.66;;;4.87;88.32
49999;BME280;68071;45.062;7.356;2023-03-04T00:53:16;95321.38;;;4.84;87.29
49999;BME280;68071;45.062;7.356;2023-03-04T00:56:20;95318.03;;;5.22;84.36
49999;BME280;68071;45.062;7.356;2023-03-04T00:59:24;95316.66;;;4.58;89.52
49999;BME280;68071;45.062;7.356;2023-03-04T01:02:28;95323.41;;;4.64;88.94
49999;BME280;68071;45.062;7.356;2023-03-04T01:05:32;95320.47;;;4.30;91.35
49999;BME280;68071;45.062;7.356;2023-03-04T01:08:38;95309.81;;;4.48;89.39
49999;BME280;68071;45.062;7.356;2023-03-04T01:11:42;95313.75;;;4.28;88.25
49999;BME280;68071;45.062;7.356;2023-03-04T01:14:46;95309.22;;;3.73;92.94
49999;BME280;68071;45.062;7.356;2023-03-04T01:17:50;95307.47;;;3.45;95.38
49999;BME280;68071;45.062;7.356;2023-03-04T01:20:54;95307.34;;;3.77;93.76
49999;BME280;68071;45.062;7.356;2023-03-04T01:23:58;95305.69;;;3.72;93.97
49999;BME280;68071;45.062;7.356;2023-03-04T01:27:02;95297.34;;;3.65;94.85
49999;BME280;68071;45.062;7.356;2023-03-04T01:30:09;95294.38;;;3.54;96.05
49999;BME280;68071;45.062;7.356;2023-03-04T01:33:13;95292.16;;;3.40;96.35
49999;BME280;68071;45.062;7.356;2023-03-04T01:36:19;95289.69;;;4.14;91.25
49999;BME280;68071;45.062;7.356;2023-03-04T01:39:23;95292.75;;;3.89;92.91
49999;BME280;68071;45.062;7.356;2023-03-04T01:42:31;95286.78;;;3.83;93.47
49999;BME280;68071;45.062;7.356;2023-03-04T01:45:36;95275.75;;;3.60;95.52
49999;BME280;68071;45.062;7.356;2023-03-04T01:48:40;95280.38;;;3.56;97.57
49999;BME280;68071;45.062;7.356;2023-03-04T01:51:51;95272.25;;;3.59;96.61
49999;BME280;68071;45.062;7.356;2023-03-04T01:54:56;95276.56;;;3.60;96.73
49999;BME280;68071;45.062;7.356;2023-03-04T01:58:00;95267.91;;;3.98;95.10
49999;BME280;68071;45.062;7.356;2023-03-04T02:01:04;95261.97;;;4.62;90.19
49999;BME280;68071;45.062;7.356;2023-03-04T02:04:09;95257.16;;;4.55;88.81
49999;BME280;68071;45.062;7.356;2023-03-04T02:07:13;95250.75;;;3.77;93.82
49999;BME280;68071;45.062;7.356;2023-03-04T02:10:17;95254.84;;;3.68;97.53
49999;BME280;68071;45.062;7.356;2023-03-04T02:13:21;95247.81;;;3.67;97.48
49999;BME280;68071;45.062;7.356;2023-03-04T02:16:26;95245.06;;;3.47;98.22
49999;BME280;68071;45.062;7.356;2023-03-04T02:26:18;95237.97;;;5.05;84.46
49999;BME280;68071;45.062;7.356;2023-03-04T02:29:26;95227.78;;;3.82;92.59
49999;BME280;68071;45.062;7.356;2023-03-04T02:32:33;95231.09;;;3.72;93.91
49999;BME280;68071;45.062;7.356;2023-03-04T02:35:37;95218.44;;;3.63;93.46
49999;BME280;68071;45.062;7.356;2023-03-04T02:38:40;95222.53;;;3.73;92.37
49999;BME280;68071;45.062;7.356;2023-03-04T02:41:55;95225.31;;;3.97;91.65
49999;BME280;68071;45.062;7.356;2023-03-04T02:45:00;95215.94;;;3.74;90.68
49999;BME280;68071;45.062;7.356;2023-03-04T02:48:06;95222.22;;;3.78;90.54
49999;BME280;68071;45.062;7.356;2023-03-04T02:51:10;95215.84;;;3.51;91.06
49999;BME280;68071;45.062;7.356;2023-03-04T02:54:17;95217.53;;;3.16;95.33
49999;BME280;68071;45.062;7.356;2023-03-04T02:57:22;95213.47;;;2.91;94.38
49999;BME280;68071;45.062;7.356;2023-03-04T03:00:31;95214.56;;;3.06;94.35
49999;BME280;68071;45.062;7.356;2023-03-04T03:03:37;95205.94;;;3.43;93.01
49999;BME280;68071;45.062;7.356;2023-03-04T03:06:42;95211.97;;;3.52;91.38
49999;BME280;68071;45.062;7.356;2023-03-04T03:09:46;95206.38;;;3.06;91.73
49999;BME280;68071;45.062;7.356;2023-03-04T03:12:50;95205.53;;;2.34;98.57
49999;BME280;68071;45.062;7.356;2023-03-04T03:15:54;95199.22;;;2.14;100.00
49999;BME280;68071;45.062;7.356;2023-03-04T03:19:01;95200.09;;;2.02;100.00
49999;BME280;68071;45.062;7.356;2023-03-04T03:22:08;95201.41;;;2.40;100.00
49999;BME280;68071;45.062;7.356;2023-03-04T03:25:14;95194.31;;;2.19;99.27
49999;BME280;68071;45.062;7.356;2023-03-04T03:28:18;95193.09;;;2.17;100.00
49999;BME280;68071;45.062;7.356;2023-03-04T03:31:22;95190.13;;;2.41;100.00
49999;BME280;68071;45.062;7.356;2023-03-04T03:34:26;95195.63;;;2.77;96.90
49999;BME280;68071;45.062;7.356;2023-03-04T03:37:30;95192.78;;;3.29;93.08
49999;BME280;68071;45.062;7.356;2023-03-04T03:40:37;95193.72;;;3.56;89.85
49999;BME280;68071;45.062;7.356;2023-03-04T03:43:40;95192.97;;;4.26;84.93
49999;BME280;68071;45.062;7.356;2023-03-04T03:46:44;95202.34;;;4.24;84.59
49999;BME280;68071;45.062;7.356;2023-03-04T03:49:49;95206.84;;;3.70;86.94
49999;BME280;68071;45.062;7.356;2023-03-04T03:52:53;95206.38;;;3.25;91.04
49999;BME280;68071;45.062;7.356;2023-03-04T03:55:57;95202.47;;;2.87;94.57
49999;BME280;68071;45.062;7.356;2023-03-04T03:59:02;95216.06;;;1.71;100.00
49999;BME280;68071;45.062;7.356;2023-03-04T04:02:06;95210.81;;;3.14;94.90
49999;BME280;68071;45.062;7.356;2023-03-04T04:05:10;95216.06;;;2.67;97.05
49999;BME280;68071;45.062;7.356;2023-03-04T04:08:16;95207.75;;;2.28;99.14
49999;BME280;68071;45.062;7.356;2023-03-04T04:11:21;95215.75;;;2.21;100.00
49999;BME280;68071;45.062;7.356;2023-03-04T04:14:25;95215.13;;;2.60;97.71
49999;BME280;68071;45.062;7.356;2023-03-04T04:17:29;95207.63;;;2.72;97.27
49999;BME280;68071;45.062;7.356;2023-03-04T04:20:33;95211.53;;;2.91;95.96
49999;BME280;68071;45.062;7.356;2023-03-04T04:23:37;95213.06;;;3.47;91.30
49999;BME280;68071;45.062;7.356;2023-03-04T04:26:41;95217.44;;;3.13;93.78
49999;BME280;68071;45.062;7.356;2023-03-04T04:29:46;95220.78;;;2.86;94.76
49999;BME280;68071;45.062;7.356;2023-03-04T04:32:50;95224.09;;;2.96;95.01
49999;BME280;68071;45.062;7.356;2023-03-04T04:35:54;95222.63;;;3.38;92.52
49999;BME280;68071;45.062;7.356;2023-03-04T04:38:58;95219.41;;;3.52;91.55
49999;BME280;68071;45.062;7.356;2023-03-04T04:42:02;95216.94;;;3.66;91.17
49999;BME280;68071;45.062;7.356;2023-03-04T04:45:07;95217.44;;;3.13;93.94
49999;BME280;68071;45.062;7.356;2023-03-04T04:48:13;95212.91;;;3.01;94.36
49999;BME280;68071;45.062;7.356;2023-03-04T04:51:17;95209.19;;;2.74;95.96
49999;BME280;68071;45.062;7.356;2023-03-04T04:54:20;95210.16;;;2.65;97.87
49999;BME280;68071;45.062;7.356;2023-03-04T04:57:24;95215.41;;;2.90;97.45
49999;BME280;68071;45.062;7.356;2023-03-04T05:00:28;95212.63;;;2.70;97.78
49999;BME280;68071;45.062;7.356;2023-03-04T05:03:34;95221.88;;;2.66;98.95
49999;BME280;68071;45.062;7.356;2023-03-04T05:06:38;95213.47;;;2.75;97.81
49999;BME280;68071;45.062;7.356;2023-03-04T05:09:42;95216.63;;;2.41;98.56
49999;BME280;68071;45.062;7.356;2023-03-04T05:12:46;95217.59;;;2.49;100.00
49999;BME280;68071;45.062;7.356;2023-03-04T05:15:55;95213.81;;;2.37;99.77
49999;BME280;68071;45.062;7.356;2023-03-04T05:18:59;95210.63;;;2.67;99.07
49999;BME280;68071;45.062;7.356;2023-03-04T05:22:03;95215.59;;;2.81;98.79
49999;BME280;68071;45.062;7.356;2023-03-04T05:25:07;95205.16;;;2.67;98.69
49999;BME280;68071;45.062;7.356;2023-03-04T05:28:12;95211.63;;;2.27;100.00
49999;BME280;68071;45.062;7.356;2023-03-04T05:31:16;95208.53;;;2.29;100.00
49999;BME280;68071;45.062;7.356;2023-03-04T05:34:20;95200.28;;;2.25;100.00
49999;BME280;68071;45.062;7.356;2023-03-04T05:37:24;95207.06;;;2.31;98.78
49999;BME280;68071;45.062;7.356;2023-03-04T05:40:28;95199.25;;;2.65;95.27
49999;BME280;68071;45.062;7.356;2023-03-04T05:43:33;95205.09;;;2.48;95.34
49999;BME280;68071;45.062;7.356;2023-03-04T05:46:38;95205.53;;;2.34;98.59
49999;BME280;68071;45.062;7.356;2023-03-04T05:49:43;95206.13;;;2.59;94.22
49999;BME280;68071;45.062;7.356;2023-03-04T05:52:48;95217.59;;;2.49;94.48
49999;BME280;68071;45.062;7.356;2023-03-04T05:55:52;95206.66;;;2.65;93.50
49999;BME280;68071;45.062;7.356;2023-03-04T05:58:57;95214.78;;;2.45;94.91
49999;BME280;68071;45.062;7.356;2023-03-04T06:02:01;95216.72;;;2.29;96.47
49999;BME280;68071;45.062;7.356;2023-03-04T06:05:06;95208.34;;;2.37;96.27
49999;BME280;68071;45.062;7.356;2023-03-04T06:08:11;95215.31;;;2.19;98.65
49999;BME280;68071;45.062;7.356;2023-03-04T06:11:15;95216.00;;;1.84;99.37
49999;BME280;68071;45.062;7.356;2023-03-04T06:14:19;95215.25;;;1.71;100.00
49999;BME280;68071;45.062;7.356;2023-03-04T06:17:22;95220.75;;;2.19;100.00
49999;BME280;68071;45.062;7.356;2023-03-04T06:20:26;95215.22;;;2.31;98.68
49999;BME280;68071;45.062;7.356;2023-03-04T06:23:30;95219.47;;;2.13;99.71
49999;BME280;68071;45.062;7.356;2023-03-04T06:26:34;95218.22;;;2.26;100.00
49999;BME280;68071;45.062;7.356;2023-03-04T06:29:38;95211.50;;;2.39;100.00
49999;BME280;68071;45.062;7.356;2023-03-04T06:32:42;95221.97;;;2.53;99.46
49999;BME280;68071;45.062;7.356;2023-03-04T06:35:54;95219.25;;;2.69;98.68
49999;BME280;68071;45.062;7.356;2023-03-04T06:39:03;95221.34;;;2.76;99.11
49999;BME280;68071;45.062;7.356;2023-03-04T06:42:06;95211.59;;;2.95;98.46
49999;BME280;68071;45.062;7.356;2023-03-04T06:45:11;95210.91;;;3.17;97.44
49999;BME280;68071;45.062;7.356;2023-03-04T06:48:15;95221.41;;;3.15;96.96
49999;BME280;68071;45.062;7.356;2023-03-04T06:51:19;95221.81;;;2.98;98.22
49999;BME280;68071;45.062;7.356;2023-03-04T06:54:23;95221.06;;;2.81;100.00
49999;BME280;68071;45.062;7.356;2023-03-04T06:57:26;95216.22;;;3.10;100.00
49999;BME280;68071;45.062;7.356;2023-03-04T07:00:31;95218.19;;;3.29;100.00
49999;BME280;68071;45.062;7.356;2023-03-04T07:03:35;95224.69;;;3.44;99.21
49999;BME280;68071;45.062;7.356;2023-03-04T07:06:39;95216.50;;;3.64;100.00
49999;BME280;68071;45.062;7.356;2023-03-04T07:09:42;95217.38;;;3.68;100.00
49999;BME280;68071;45.062;7.356;2023-03-04T07:12:47;95220.38;;;3.63;100.00
49999;BME280;68071;45.062;7.356;2023-03-04T07:15:51;95228.03;;;3.97;100.00
49999;BME280;68071;45.062;7.356;2023-03-04T07:18:55;95216.44;;;4.03;100.00
49999;BME280;68071;45.062;7.356;2023-03-04T07:21:59;95224.81;;;4.14;99.04
49999;BME280;68071;45.062;7.356;2023-03-04T07:25:04;95220.09;;;4.34;99.00
49999;BME280;68071;45.062;7.356;2023-03-04T07:28:09;95221.22;;;4.57;97.54
49999;BME280;68071;45.062;7.356;2023-03-04T07:31:28;95224.28;;;4.78;95.89
49999;BME280;68071;45.062;7.356;2023-03-04T07:34:32;95220.63;;;4.97;89.83
49999;BME280;68071;45.062;7.356;2023-03-04T07:37:36;95226.44;;;5.23;87.06
49999;BME280;68071;45.062;7.356;2023-03-04T07:40:40;95226.66;;;5.37;87.72
49999;BME280;68071;45.062;7.356;2023-03-04T07:43:44;95225.59;;;5.49;87.03
49999;BME280;68071;45.062;7.356;2023-03-04T07:46:48;95231.06;;;5.45;87.31
49999;BME280;68071;45.062;7.356;2023-03-04T07:49:52;95223.63;;;5.46;87.13
49999;BME280;68071;45.062;7.356;2023-03-04T07:52:58;95219.34;;;5.49;86.21
49999;BME280;68071;45.062;7.356;2023-03-04T07:56:03;95227.72;;;5.59;86.43
49999;BME280;68071;45.062;7.356;2023-03-04T07:59:07;95227.50;;;5.75;85.00
49999;BME280;68071;45.062;7.356;2023-03-04T08:02:11;95230.75;;;5.88;84.08
49999;BME280;68071;45.062;7.356;2023-03-04T08:05:15;95222.41;;;6.12;81.11
49999;BME280;68071;45.062;7.356;2023-03-04T08:08:19;95221.00;;;6.29;80.54
49999;BME280;68071;45.062;7.356;2023-03-04T08:11:23;95231.00;;;6.51;80.53
49999;BME280;68071;45.062;7.356;2023-03-04T08:14:27;95221.69;;;6.67;76.76
49999;BME280;68071;45.062;7.356;2023-03-04T08:17:31;95226.84;;;6.69;77.04
49999;BME280;68071;45.062;7.356;2023-03-04T08:20:35;95222.13;;;6.69;76.69
49999;BME280;68071;45.062;7.356;2023-03-04T08:23:40;95221.03;;;6.81;74.32
49999;BME280;68071;45.062;7.356;2023-03-04T08:26:46;95222.66;;;6.89;74.82
49999;BME280;68071;45.062;7.356;2023-03-04T08:29:51;95217.59;;;6.99;74.28
49999;BME280;68071;45.062;7.356;2023-03-04T08:32:55;95212.59;;;7.11;73.95
49999;BME280;68071;45.062;7.356;2023-03-04T08:35:59;95213.78;;;7.14;73.86
49999;BME280;68071;45.062;7.356;2023-03-04T08:39:04;95206.41;;;7.29;72.70
49999;BME280;68071;45.062;7.356;2023-03-04T08:42:08;95201.78;;;7.51;71.59
49999;BME280;68071;45.062;7.356;2023-03-04T08:45:13;95207.66;;;7.46;71.82
49999;BME280;68071;45.062;7.356;2023-03-04T08:48:17;95212.75;;;7.48;71.40
49999;BME280;68071;45.062;7.356;2023-03-04T08:51:21;95204.97;;;7.64;72.46
49999;BME280;68071;45.062;7.356;2023-03-04T08:54:25;95202.22;;;7.61;71.20
49999;BME280;68071;45.062;7.356;2023-03-04T08:57:29;95198.38;;;7.83;72.68
49999;BME280;68071;45.062;7.356;2023-03-04T09:00:35;95197.22;;;8.02;72.93
49999;BME280;68071;45.062;7.356;2023-03-04T09:03:42;95192.88;;;7.98;73.08
49999;BME280;68071;45.062;7.356;2023-03-04T09:06:46;95194.06;;;8.04;72.45
49999;BME280;68071;45.062;7.356;2023-03-04T09:09:50;95197.25;;;8.13;72.55
49999;BME280;68071;45.062;7.356;2023-03-04T09:12:54;95191.31;;;8.15;71.45
49999;BME280;68071;45.062;7.356;2023-03-04T09:15:58;95189.75;;;8.07;70.78
49999;BME280;68071;45.062;7.356;2023-03-04T09:19:02;95190.16;;;8.27;70.26
49999;BME280;68071;45.062;7.356;2023-03-04T09:22:07;95188.97;;;8.17;69.95
49999;BME280;68071;45.062;7.356;2023-03-04T09:25:12;95190.97;;;8.38;70.80
49999;BME280;68071;45.062;7.356;2023-03-04T09:28:18;95189.03;;;8.50;69.47
49999;BME280;68071;45.062;7.356;2023-03-04T09:31:23;95181.94;;;8.45;69.30
49999;BME280;68071;45.062;7.356;2023-03-04T09:34:27;95190.59;;;8.36;69.33
49999;BME280;68071;45.062;7.356;2023-03-04T09:37:31;95186.28;;;8.50;69.35
49999;BME280;68071;45.062;7.356;2023-03-04T09:40:48;95176.84;;;8.51;68.27
49999;BME280;68071;45.062;7.356;2023-03-04T09:43:53;95185.88;;;8.66;67.76
49999;BME280;68071;45.062;7.356;2023-03-04T09:47:00;95192.97;;;8.67;66.82
49999;BME280;68071;45.062;7.356;2023-03-04T09:50:10;95179.97;;;8.74;65.70
49999;BME280;68071;45.062;7.356;2023-03-04T09:53:21;95185.50;;;8.74;65.51
49999;BME280;68071;45.062;7.356;2023-03-04T09:56:33;95176.44;;;8.70;63.96
49999;BME280;68071;45.062;7.356;2023-03-04T09:59:44;95176.44;;;8.81;63.94
49999;BME280;68071;45.062;7.356;2023-03-04T10:06:08;95176.38;;;9.06;62.54
49999;BME280;68071;45.062;7.356;2023-03-04T10:09:28;95174.03;;;8.98;63.74
49999;BME280;68071;45.062;7.356;2023-03-04T10:12:36;95164.97;;;8.93;63.53
49999;BME280;68071;45.062;7.356;2023-03-04T10:15:45;95169.28;;;9.13;63.76
49999;BME280;68071;45.062;7.356;2023-03-04T10:18:55;95161.78;;;9.10;65.33
49999;BME280;68071;45.062;7.356;2023-03-04T10:22:15;95162.13;;;9.26;63.49
49999;BME280;68071;45.062;7.356;2023-03-04T10:25:24;95159.31;;;9.48;63.60
49999;BME280;68071;45.062;7.356;2023-03-04T10:28:29;95154.38;;;9.84;64.03
49999;BME280;68071;45.062;7.356;2023-03-04T10:31:36;95157.25;;;9.66;62.83
49999;BME280;68071;45.062;7.356;2023-03-04T10:34:40;95162.06;;;9.48;65.10
49999;BME280;68071;45.062;7.356;2023-03-04T10:37:49;95151.75;;;9.59;62.17
49999;BME280;68071;45.062;7.356;2023-03-04T10:40:53;95149.44;;;9.54;64.64
49999;BME280;68071;45.062;7.356;2023-03-04T10:44:11;95149.44;;;9.50;63.92
49999;BME280;68071;45.062;7.356;2023-03-04T10:47:18;95140.44;;;9.35;63.51
49999;BME280;68071;45.062;7.356;2023-03-04T10:50:25;95129.19;;;9.79;64.86
49999;BME280;68071;45.062;7.356;2023-03-04T10:53:32;95132.16;;;10.10;66.95
49999;BME280;68071;45.062;7.356;2023-03-04T10:56:42;95128.53;;;10.20;62.65
49999;BME280;68071;45.062;7.356;2023-03-04T11:06:28;95113.03;;;10.79;59.50
49999;BME280;68071;45.062;7.356;2023-03-04T11:09:34;95116.44;;;10.56;59.91
49999;BME280;68071;45.062;7.356;2023-03-04T11:12:38;95107.88;;;10.36;59.52
49999;BME280;68071;45.062;7.356;2023-03-04T11:16:00;95113.41;;;10.39;60.89
49999;BME280;68071;45.062;7.356;2023-03-04T11:19:13;95109.94;;;10.24;60.38
49999;BME280;68071;45.062;7.356;2023-03-04T11:22:20;95103.03;;;10.51;59.60
49999;BME280;68071;45.062;7.356;2023-03-04T11:25:31;95100.94;;;11.04;57.87
49999;BME280;68071;45.062;7.356;2023-03-04T11:31:57;95096.59;;;10.65;59.39
49999;BME280;68071;45.062;7.356;2023-03-04T11:35:06;95087.31;;;10.44;61.87
49999;BME280;68071;45.062;7.356;2023-03-04T11:38:25;95088.03;;;10.52;59.68
49999;BME280;68071;45.062;7.356;2023-03-04T11:41:35;95083.03;;;10.39;59.54
49999;BME280;68071;45.062;7.356;2023-03-04T11:44:40;95074.13;;;10.63;58.79
49999;BME280;68071;45.062;7.356;2023-03-04T11:47:58;95071.41;;;10.59;59.17
49999;BME280;68071;45.062;7.356;2023-03-04T11:54:48;95056.72;;;11.00;57.94
49999;BME280;68071;45.062;7.356;2023-03-04T11:58:03;95053.66;;;10.91;56.78
49999;BME280;68071;45.062;7.356;2023-03-04T12:08:22;95039.41;;;10.93;57.67
49999;BME280;68071;45.062;7.356;2023-03-04T12:26:19;95020.25;;;11.09;55.76
49999;BME280;68071;45.062;7.356;2023-03-04T12:35:46;94993.66;;;11.46;55.74
49999;BME280;68071;45.062;7.356;2023-03-04T12:39:04;94990.13;;;11.46;55.00
49999;BME280;68071;45.062;7.356;2023-03-04T12:49:40;94977.97;;;11.91;56.51
49999;BME280;68071;45.062;7.356;2023-03-04T12:53:05;94966.75;;;11.74;56.47
49999;BME280;68071;45.062;7.356;2023-03-04T12:59:25;94965.31;;;11.66;57.47
49999;BME280;68071;45.062;7.356;2023-03-04T13:09:57;94952.00;;;11.30;57.38
49999;BME280;68071;45.062;7.356;2023-03-04T13:13:01;94939.91;;;11.20;61.37
49999;BME280;68071;45.062;7.356;2023-03-04T13:20:04;94944.91;;;11.80;57.46
49999;BME280;68071;45.062;7.356;2023-03-04T13:23:23;94937.06;;;11.75;57.55
49999;BME280;68071;45.062;7.356;2023-03-04T13:26:30;94940.03;;;11.64;60.87
49999;BME280;68071;45.062;7.356;2023-03-04T13:29:35;94933.44;;;11.82;58.48
49999;BME280;68071;45.062;7.356;2023-03-04T13:32:41;94928.00;;;11.98;59.85
49999;BME280;68071;45.062;7.356;2023-03-04T13:39:21;94922.84;;;12.00;56.97
49999;BME280;68071;45.062;7.356;2023-03-04T13:42:40;94925.78;;;11.65;60.07
49999;BME280;68071;45.062;7.356;2023-03-04T13:45:45;94926.66;;;11.83;58.70
49999;BME280;68071;45.062;7.356;2023-03-04T13:51:53;94921.75;;;12.18;58.52
49999;BME280;68071;45.062;7.356;2023-03-04T13:55:50;94913.00;;;12.19;58.80
49999;BME280;68071;45.062;7.356;2023-03-04T13:59:10;94915.59;;;11.83;57.02
49999;BME280;68071;45.062;7.356;2023-03-04T14:02:19;94913.31;;;12.01;60.49
49999;BME280;68071;45.062;7.356;2023-03-04T14:05:24;94906.53;;;12.26;55.84
49999;BME280;68071;45.062;7.356;2023-03-04T14:08:28;94906.25;;;12.40;56.82
49999;BME280;68071;45.062;7.356;2023-03-04T14:11:38;94901.56;;;12.17;58.75
49999;BME280;68071;45.062;7.356;2023-03-04T14:14:51;94898.50;;;11.88;58.64
49999;BME280;68071;45.062;7.356;2023-03-04T14:17:58;94899.88;;;11.76;58.19
49999;BME280;68071;45.062;7.356;2023-03-04T14:21:03;94896.44;;;12.16;57.54
49999;BME280;68071;45.062;7.356;2023-03-04T14:24:15;94881.66;;;12.43;56.89
49999;BME280;68071;45.062;7.356;2023-03-04T14:27:20;94874.97;;;12.60;60.98
49999;BME280;68071;45.062;7.356;2023-03-04T14:30:26;94874.78;;;12.51;57.15
49999;BME280;68071;45.062;7.356;2023-03-04T14:33:31;94872.59;;;12.79;55.97
49999;BME280;68071;45.062;7.356;2023-03-04T14:36:35;94871.50;;;12.93;55.18
49999;BME280;68071;45.062;7.356;2023-03-04T14:39:41;94873.53;;;12.72;54.96
49999;BME280;68071;45.062;7.356;2023-03-04T14:42:46;94861.84;;;12.81;56.20
49999;BME280;68071;45.062;7.356;2023-03-04T14:45:54;94861.81;;;12.64;56.15
49999;BME280;68071;45.062;7.356;2023-03-04T14:49:01;94857.75;;;12.69;57.08
49999;BME280;68071;45.062;7.356;2023-03-04T14:52:05;94859.03;;;12.84;55.58
49999;BME280;68071;45.062;7.356;2023-03-04T14:58:23;94856.19;;;12.68;56.83
49999;BME280;68071;45.062;7.356;2023-03-04T15:01:34;94856.38;;;12.20;57.83
49999;BME280;68071;45.062;7.356;2023-03-04T15:04:39;94849.97;;;12.64;56.36
49999;BME280;68071;45.062;7.356;2023-03-04T15:07:50;94860.00;;;12.58;54.17
49999;BME280;68071;45.062;7.356;2023-03-04T15:10:59;94855.09;;;12.25;58.37
49999;BME280;68071;45.062;7.356;2023-03-04T15:14:04;94855.09;;;12.25;58.00
49999;BME280;68071;45.062;7.356;2023-03-04T15:20:30;94834.44;;;12.66;57.04
49999;BME280;68071;45.062;7.356;2023-03-04T15:23:35;94837.75;;;12.41;57.06
49999;BME280;68071;45.062;7.356;2023-03-04T15:26:40;94837.59;;;12.48;57.12
49999;BME280;68071;45.062;7.356;2023-03-04T15:29:45;94838.34;;;12.69;55.43
49999;BME280;68071;45.062;7.356;2023-03-04T15:32:49;94840.09;;;12.43;57.67
49999;BME280;68071;45.062;7.356;2023-03-04T15:35:58;94846.78;;;12.82;55.67
49999;BME280;68071;45.062;7.356;2023-03-04T15:39:02;94843.06;;;12.89;56.37
49999;BME280;68071;45.062;7.356;2023-03-04T15:42:10;94839.91;;;12.70;57.51
49999;BME280;68071;45.062;7.356;2023-03-04T15:48:30;94828.78;;;11.93;60.03
49999;BME280;68071;45.062;7.356;2023-03-04T15:51:34;94825.25;;;12.33;58.98
49999;BME280;68071;45.062;7.356;2023-03-04T15:54:39;94828.38;;;12.35;57.43
49999;BME280;68071;45.062;7.356;2023-03-04T15:57:45;94828.25;;;12.02;59.85
49999;BME280;68071;45.062;7.356;2023-03-04T16:00:51;94822.22;;;12.07;60.04
49999;BME280;68071;45.062;7.356;2023-03-04T16:03:55;94824.13;;;12.10;60.49
49999;BME280;68071;45.062;7.356;2023-03-04T16:06:59;94811.09;;;12.47;58.14
49999;BME280;68071;45.062;7.356;2023-03-04T16:13:21;94828.72;;;13.10;56.38
49999;BME280;68071;45.062;7.356;2023-03-04T16:16:25;94822.44;;;12.90;56.40
49999;BME280;68071;45.062;7.356;2023-03-04T16:19:29;94822.09;;;12.88;56.10
49999;BME280;68071;45.062;7.356;2023-03-04T16:22:33;94820.56;;;12.50;57.57
49999;BME280;68071;45.062;7.356;2023-03-04T16:25:36;94830.31;;;12.75;56.91
49999;BME280;68071;45.062;7.356;2023-03-04T16:28:41;94824.53;;;10.38;68.28
49999;BME280;68071;45.062;7.356;2023-03-04T16:31:44;94826.38;;;9.79;69.62
49999;BME280;68071;45.062;7.356;2023-03-04T16:34:48;94831.22;;;9.26;73.78
49999;BME280;68071;45.062;7.356;2023-03-04T16:37:53;94824.00;;;8.94;74.79
49999;BME280;68071;45.062;7.356;2023-03-04T16:40:58;94827.75;;;8.62;77.69
49999;BME280;68071;45.062;7.356;2023-03-04T16:44:05;94826.47;;;7.96;82.63
49999;BME280;68071;45.062;7.356;2023-03-04T16:47:12;94828.13;;;7.68;81.94
49999;BME280;68071;45.062;7.356;2023-03-04T16:50:21;94825.63;;;8.06;79.48
49999;BME280;68071;45.062;7.356;2023-03-04T16:53:34;94827.34;;;7.71;82.13
49999;BME280;68071;45.062;7.356;2023-03-04T16:56:38;94827.00;;;7.54;83.19
49999;BME280;68071;45.062;7.356;2023-03-04T16:59:42;94833.72;;;7.24;86.62
49999;BME280;68071;45.062;7.356;2023-03-04T17:02:59;94828.63;;;7.19;86.15
49999;BME280;68071;45.062;7.356;2023-03-04T17:06:03;94833.69;;;7.50;83.41
49999;BME280;68071;45.062;7.356;2023-03-04T17:09:08;94829.31;;;8.63;74.37
49999;BME280;68071;45.062;7.356;2023-03-04T17:12:12;94826.22;;;8.46;75.05
49999;BME280;68071;45.062;7.356;2023-03-04T17:15:16;94826.13;;;7.83;78.93
49999;BME280;68071;45.062;7.356;2023-03-04T17:18:21;94826.41;;;8.17;76.41
49999;BME280;68071;45.062;7.356;2023-03-04T17:21:26;94828.00;;;8.08;77.12
49999;BME280;68071;45.062;7.356;2023-03-04T17:24:30;94832.13;;;7.31;81.42
49999;BME280;68071;45.062;7.356;2023-03-04T17:27:34;94825.47;;;6.95;83.58
49999;BME280;68071;45.062;7.356;2023-03-04T17:30:38;94827.75;;;7.62;79.90
49999;BME280;68071;45.062;7.356;2023-03-04T17:33:43;94838.38;;;7.49;80.28
49999;BME280;68071;45.062;7.356;2023-03-04T17:36:47;94832.09;;;7.56;79.64
49999;BME280;68071;45.062;7.356;2023-03-04T17:39:51;94831.75;;;7.25;81.13
49999;BME280;68071;45.062;7.356;2023-03-04T17:42:57;94831.72;;;7.36;80.76
49999;BME280;68071;45.062;7.356;2023-03-04T17:46:04;94840.38;;;6.76;83.69
49999;BME280;68071;45.062;7.356;2023-03-04T17:49:10;94847.06;;;6.86;83.74
49999;BME280;68071;45.062;7.356;2023-03-04T17:52:14;94837.59;;;6.55;85.87
49999;BME280;68071;45.062;7.356;2023-03-04T17:55:17;94844.25;;;6.46;85.99
49999;BME280;68071;45.062;7.356;2023-03-04T17:58:22;94840.00;;;7.07;81.95
49999;BME280;68071;45.062;7.356;2023-03-04T18:01:27;94847.84;;;7.34;79.88
49999;BME280;68071;45.062;7.356;2023-03-04T18:04:32;94846.63;;;6.62;83.68
49999;BME280;68071;45.062;7.356;2023-03-04T18:07:37;94847.00;;;6.46;85.06